sensor_id;sensor_type;location;lat;lon;timestamp;P1;durP1;ratioP1;P2;durP2;ratioP2
26622;SDS011;14254;50.968;5.366;2022-08-01T00:00:30;7.57;;;3.80;;
26622;SDS011;14254;50.968;5.366;2022-08-01T00:02:56;3.20;;;2.90;;
26622;SDS011;14254;50.968;5.366;2022-08-01T00:05:22;4.78;;;3.38;;
26622;SDS011;14254;50.968;5.366;2022-08-01T00:07:47;5.25;;;3.28;;
26622;SDS011;14254;50.968;5.366;2022-08-01T00:10:14;8.35;;;3.58;;
26622;SDS011;14254;50.968;5.366;2022-08-01T00:12:41;3.15;;;2.80;;
26622;SDS011;14254;50.968;5.366;2022-08-01T00:15:08;8.70;;;3.22;;
26622;SDS011;14254;50.968;5.366;2022-08-01T00:17:35;6.40;;;3.17;;
26622;SDS011;14254;50.968;5.366;2022-08-01T00:20:02;3.13;;;2.75;;
26622;SDS011;14254;50.968;5.366;2022-08-01T00:22:32;4.78;;;3.00;;
26622;SDS011;14254;50.968;5.366;2022-08-01T00:24:59;2.92;;;2.47;;
26622;SDS011;14254;50.968;5.366;2022-08-01T00:27:25;8.93;;;2.67;;
26622;SDS011;14254;50.968;5.366;2022-08-01T00:29:51;3.45;;;2.72;;
26622;SDS011;14254;50.968;5.366;2022-08-01T00:32:16;6.13;;;2.95;;
26622;SDS011;14254;50.968;5.366;2022-08-01T00:34:42;5.38;;;2.55;;
26622;SDS011;14254;50.968;5.366;2022-08-01T00:37:08;4.45;;;2.55;;
26622;SDS011;14254;50.968;5.366;2022-08-01T00:39:34;4.70;;;2.35;;
26622;SDS011;14254;50.968;5.366;2022-08-01T00:42:00;3.13;;;2.83;;
26622;SDS011;14254;50.968;5.366;2022-08-01T00:44:31;8.90;;;2.80;;
26622;SDS011;14254;50.968;5.366;2022-08-01T00:46:56;4.75;;;2.67;;
26622;SDS011;14254;50.968;5.366;2022-08-01T00:49:22;5.13;;;2.70;;
26622;SDS011;14254;50.968;5.366;2022-08-01T00:51:48;5.28;;;3.03;;
26622;SDS011;14254;50.968;5.366;2022-08-01T00:54:14;3.92;;;2.67;;
26622;SDS011;14254;50.968;5.366;2022-08-01T00:56:40;5.63;;;2.85;;
26622;SDS011;14254;50.968;5.366;2022-08-01T00:59:06;3.20;;;2.30;;
26622;SDS011;14254;50.968;5.366;2022-08-01T01:01:33;5.30;;;3.20;;
26622;SDS011;14254;50.968;5.366;2022-08-01T01:04:00;3.60;;;2.47;;
26622;SDS011;14254;50.968;5.366;2022-08-01T01:06:40;6.25;;;2.67;;
26622;SDS011;14254;50.968;5.366;2022-08-01T01:14:38;4.40;;;2.55;;
26622;SDS011;14254;50.968;5.366;2022-08-01T01:17:26;4.10;;;2.72;;
26622;SDS011;14254;50.968;5.366;2022-08-01T01:19:55;5.40;;;2.30;;
26622;SDS011;14254;50.968;5.366;2022-08-01T01:30:32;3.92;;;2.35;;
26622;SDS011;14254;50.968;5.366;2022-08-01T01:33:01;3.88;;;2.22;;
26622;SDS011;14254;50.968;5.366;2022-08-01T01:35:31;6.72;;;2.72;;
26622;SDS011;14254;50.968;5.366;2022-08-01T01:40:47;4.70;;;2.75;;
26622;SDS011;14254;50.968;5.366;2022-08-01T01:43:15;3.97;;;2.22;;
26622;SDS011;14254;50.968;5.366;2022-08-01T01:45:43;5.18;;;2.78;;
26622;SDS011;14254;50.968;5.366;2022-08-01T01:48:12;3.25;;;2.30;;
26622;SDS011;14254;50.968;5.366;2022-08-01T01:50:39;8.90;;;2.70;;
26622;SDS011;14254;50.968;5.366;2022-08-01T01:53:07;7.78;;;3.03;;
26622;SDS011;14254;50.968;5.366;2022-08-01T01:55:37;4.00;;;2.88;;
26622;SDS011;14254;50.968;5.366;2022-08-01T01:58:06;5.57;;;2.53;;
26622;SDS011;14254;50.968;5.366;2022-08-01T02:00:33;6.88;;;3.10;;
26622;SDS011;14254;50.968;5.366;2022-08-01T02:03:03;5.35;;;2.78;;
26622;SDS011;14254;50.968;5.366;2022-08-01T02:05:31;6.68;;;2.95;;
26622;SDS011;14254;50.968;5.366;2022-08-01T02:07:59;7.43;;;2.58;;
26622;SDS011;14254;50.968;5.366;2022-08-01T02:10:27;6.00;;;2.83;;
26622;SDS011;14254;50.968;5.366;2022-08-01T02:12:54;3.22;;;2.75;;
26622;SDS011;14254;50.968;5.366;2022-08-01T02:15:22;5.90;;;3.53;;
26622;SDS011;14254;50.968;5.366;2022-08-01T02:17:49;5.28;;;3.10;;
26622;SDS011;14254;50.968;5.366;2022-08-01T02:20:16;5.68;;;3.00;;
26622;SDS011;14254;50.968;5.366;2022-08-01T02:22:44;6.70;;;2.90;;
26622;SDS011;14254;50.968;5.366;2022-08-01T02:30:32;7.97;;;3.17;;
26622;SDS011;14254;50.968;5.366;2022-08-01T02:33:03;4.55;;;3.10;;
26622;SDS011;14254;50.968;5.366;2022-08-01T02:35:32;9.43;;;3.30;;
26622;SDS011;14254;50.968;5.366;2022-08-01T02:38:03;8.90;;;3.72;;
26622;SDS011;14254;50.968;5.366;2022-08-01T02:40:32;8.27;;;3.85;;
26622;SDS011;14254;50.968;5.366;2022-08-01T02:42:59;5.18;;;3.58;;
26622;SDS011;14254;50.968;5.366;2022-08-01T02:45:27;6.50;;;4.15;;
26622;SDS011;14254;50.968;5.366;2022-08-01T02:47:57;6.53;;;3.67;;
26622;SDS011;14254;50.968;5.366;2022-08-01T02:52:53;11.40;;;4.00;;
26622;SDS011;14254;50.968;5.366;2022-08-01T02:55:20;9.25;;;4.07;;
26622;SDS011;14254;50.968;5.366;2022-08-01T02:57:47;6.85;;;4.50;;
26622;SDS011;14254;50.968;5.366;2022-08-01T03:00:17;8.57;;;4.60;;
26622;SDS011;14254;50.968;5.366;2022-08-01T03:02:44;8.07;;;4.53;;
26622;SDS011;14254;50.968;5.366;2022-08-01T03:05:13;8.35;;;4.72;;
26622;SDS011;14254;50.968;5.366;2022-08-01T03:07:40;6.15;;;4.45;;
26622;SDS011;14254;50.968;5.366;2022-08-01T03:10:06;9.32;;;4.65;;
26622;SDS011;14254;50.968;5.366;2022-08-01T03:12:34;9.93;;;5.00;;
26622;SDS011;14254;50.968;5.366;2022-08-01T03:15:03;7.95;;;4.90;;
26622;SDS011;14254;50.968;5.366;2022-08-01T03:17:31;7.95;;;5.10;;
26622;SDS011;14254;50.968;5.366;2022-08-01T03:19:57;10.50;;;5.32;;
26622;SDS011;14254;50.968;5.366;2022-08-01T03:22:27;11.00;;;5.47;;
26622;SDS011;14254;50.968;5.366;2022-08-01T03:24:55;8.80;;;5.72;;
26622;SDS011;14254;50.968;5.366;2022-08-01T03:27:22;12.88;;;5.53;;
26622;SDS011;14254;50.968;5.366;2022-08-01T03:29:49;8.43;;;5.38;;
26622;SDS011;14254;50.968;5.366;2022-08-01T03:32:17;10.05;;;5.47;;
26622;SDS011;14254;50.968;5.366;2022-08-01T03:34:44;15.70;;;6.72;;
26622;SDS011;14254;50.968;5.366;2022-08-01T03:39:40;11.43;;;6.15;;
26622;SDS011;14254;50.968;5.366;2022-08-01T03:42:20;14.55;;;5.82;;
26622;SDS011;14254;50.968;5.366;2022-08-01T03:44:54;7.78;;;5.47;;
26622;SDS011;14254;50.968;5.366;2022-08-01T03:47:22;9.30;;;5.85;;
26622;SDS011;14254;50.968;5.366;2022-08-01T03:49:54;11.45;;;6.47;;
26622;SDS011;14254;50.968;5.366;2022-08-01T03:52:22;12.10;;;6.88;;
26622;SDS011;14254;50.968;5.366;2022-08-01T03:54:53;13.95;;;6.10;;
26622;SDS011;14254;50.968;5.366;2022-08-01T03:57:21;12.27;;;7.07;;
26622;SDS011;14254;50.968;5.366;2022-08-01T03:59:48;12.82;;;7.07;;
26622;SDS011;14254;50.968;5.366;2022-08-01T04:02:15;10.90;;;5.85;;
26622;SDS011;14254;50.968;5.366;2022-08-01T04:04:41;9.32;;;6.20;;
26622;SDS011;14254;50.968;5.366;2022-08-01T04:07:26;11.02;;;6.85;;
26622;SDS011;14254;50.968;5.366;2022-08-01T04:09:56;13.20;;;7.35;;
26622;SDS011;14254;50.968;5.366;2022-08-01T04:12:22;15.77;;;7.88;;
26622;SDS011;14254;50.968;5.366;2022-08-01T04:14:49;14.48;;;8.25;;
26622;SDS011;14254;50.968;5.366;2022-08-01T04:17:15;14.20;;;8.30;;
26622;SDS011;14254;50.968;5.366;2022-08-01T04:19:41;12.98;;;7.38;;
26622;SDS011;14254;50.968;5.366;2022-08-01T04:22:08;12.77;;;8.07;;
26622;SDS011;14254;50.968;5.366;2022-08-01T04:24:38;12.17;;;7.57;;
26622;SDS011;14254;50.968;5.366;2022-08-01T04:27:08;13.52;;;7.55;;
26622;SDS011;14254;50.968;5.366;2022-08-01T04:29:38;12.70;;;7.50;;
26622;SDS011;14254;50.968;5.366;2022-08-01T04:32:07;13.05;;;8.02;;
26622;SDS011;14254;50.968;5.366;2022-08-01T04:34:35;14.75;;;8.55;;
26622;SDS011;14254;50.968;5.366;2022-08-01T04:37:05;16.30;;;8.52;;
26622;SDS011;14254;50.968;5.366;2022-08-01T04:39:35;18.67;;;8.52;;
26622;SDS011;14254;50.968;5.366;2022-08-01T04:42:04;12.05;;;8.73;;
26622;SDS011;14254;50.968;5.366;2022-08-01T04:44:31;15.23;;;9.38;;
26622;SDS011;14254;50.968;5.366;2022-08-01T04:46:58;16.17;;;10.35;;
26622;SDS011;14254;50.968;5.366;2022-08-01T04:49:25;18.45;;;11.30;;
26622;SDS011;14254;50.968;5.366;2022-08-01T04:51:53;25.77;;;11.07;;
26622;SDS011;14254;50.968;5.366;2022-08-01T04:54:33;19.13;;;11.50;;
26622;SDS011;14254;50.968;5.366;2022-08-01T04:57:05;22.10;;;11.30;;
26622;SDS011;14254;50.968;5.366;2022-08-01T04:59:34;18.55;;;10.65;;
26622;SDS011;14254;50.968;5.366;2022-08-01T05:02:09;20.65;;;11.73;;
26622;SDS011;14254;50.968;5.366;2022-08-01T05:04:36;22.13;;;12.05;;
26622;SDS011;14254;50.968;5.366;2022-08-01T05:07:02;26.83;;;12.43;;
26622;SDS011;14254;50.968;5.366;2022-08-01T05:09:29;26.15;;;14.70;;
26622;SDS011;14254;50.968;5.366;2022-08-01T05:11:55;24.70;;;15.07;;
26622;SDS011;14254;50.968;5.366;2022-08-01T05:14:23;27.63;;;16.13;;
26622;SDS011;14254;50.968;5.366;2022-08-01T05:16:53;28.60;;;16.13;;
26622;SDS011;14254;50.968;5.366;2022-08-01T05:19:19;37.25;;;19.48;;
26622;SDS011;14254;50.968;5.366;2022-08-01T05:21:45;35.97;;;19.10;;
26622;SDS011;14254;50.968;5.366;2022-08-01T05:24:11;32.63;;;18.88;;
26622;SDS011;14254;50.968;5.366;2022-08-01T05:26:38;34.55;;;20.08;;
26622;SDS011;14254;50.968;5.366;2022-08-01T05:29:04;35.95;;;21.08;;
26622;SDS011;14254;50.968;5.366;2022-08-01T05:31:30;50.58;;;21.60;;
26622;SDS011;14254;50.968;5.366;2022-08-01T05:33:59;40.72;;;20.58;;
26622;SDS011;14254;50.968;5.366;2022-08-01T05:36:25;40.50;;;21.27;;
26622;SDS011;14254;50.968;5.366;2022-08-01T05:38:51;41.08;;;22.08;;
26622;SDS011;14254;50.968;5.366;2022-08-01T05:41:17;34.63;;;21.45;;
26622;SDS011;14254;50.968;5.366;2022-08-01T05:43:43;39.40;;;22.23;;
26622;SDS011;14254;50.968;5.366;2022-08-01T05:46:08;39.15;;;22.20;;
26622;SDS011;14254;50.968;5.366;2022-08-01T05:48:34;39.53;;;22.75;;
26622;SDS011;14254;50.968;5.366;2022-08-01T05:51:00;39.92;;;22.85;;
26622;SDS011;14254;50.968;5.366;2022-08-01T05:53:25;37.83;;;22.20;;
26622;SDS011;14254;50.968;5.366;2022-08-01T05:55:51;39.05;;;22.55;;
26622;SDS011;14254;50.968;5.366;2022-08-01T05:58:17;41.55;;;22.98;;
26622;SDS011;14254;50.968;5.366;2022-08-01T06:00:43;36.88;;;22.38;;
26622;SDS011;14254;50.968;5.366;2022-08-01T06:03:08;34.78;;;21.92;;
26622;SDS011;14254;50.968;5.366;2022-08-01T06:05:36;43.88;;;23.20;;
26622;SDS011;14254;50.968;5.366;2022-08-01T06:08:02;36.30;;;22.08;;
26622;SDS011;14254;50.968;5.366;2022-08-01T06:10:27;36.47;;;20.30;;
26622;SDS011;14254;50.968;5.366;2022-08-01T06:12:53;35.53;;;22.05;;
26622;SDS011;14254;50.968;5.366;2022-08-01T06:15:19;36.92;;;21.02;;
26622;SDS011;14254;50.968;5.366;2022-08-01T06:17:45;30.15;;;20.13;;
26622;SDS011;14254;50.968;5.366;2022-08-01T06:20:10;34.83;;;20.73;;
26622;SDS011;14254;50.968;5.366;2022-08-01T06:22:36;31.25;;;20.08;;
26622;SDS011;14254;50.968;5.366;2022-08-01T06:25:02;33.10;;;20.38;;
26622;SDS011;14254;50.968;5.366;2022-08-01T06:27:29;29.33;;;19.98;;
26622;SDS011;14254;50.968;5.366;2022-08-01T06:29:54;28.70;;;17.65;;
26622;SDS011;14254;50.968;5.366;2022-08-01T06:32:21;27.38;;;17.98;;
26622;SDS011;14254;50.968;5.366;2022-08-01T06:34:48;26.48;;;18.10;;
26622;SDS011;14254;50.968;5.366;2022-08-01T06:37:14;25.25;;;16.58;;
26622;SDS011;14254;50.968;5.366;2022-08-01T06:39:40;26.88;;;16.65;;
26622;SDS011;14254;50.968;5.366;2022-08-01T06:42:06;29.50;;;18.10;;
26622;SDS011;14254;50.968;5.366;2022-08-01T06:44:32;31.85;;;16.20;;
26622;SDS011;14254;50.968;5.366;2022-08-01T06:46:57;25.30;;;16.77;;
26622;SDS011;14254;50.968;5.366;2022-08-01T06:49:23;24.00;;;15.68;;
26622;SDS011;14254;50.968;5.366;2022-08-01T06:51:49;25.60;;;15.10;;
26622;SDS011;14254;50.968;5.366;2022-08-01T06:54:15;24.02;;;13.65;;
26622;SDS011;14254;50.968;5.366;2022-08-01T06:56:41;20.88;;;14.85;;
26622;SDS011;14254;50.968;5.366;2022-08-01T06:59:07;20.95;;;14.13;;
26622;SDS011;14254;50.968;5.366;2022-08-01T07:01:33;21.50;;;13.50;;
26622;SDS011;14254;50.968;5.366;2022-08-01T07:03:58;23.50;;;13.48;;
26622;SDS011;14254;50.968;5.366;2022-08-01T07:06:24;21.80;;;11.82;;
26622;SDS011;14254;50.968;5.366;2022-08-01T07:08:51;18.63;;;11.82;;
26622;SDS011;14254;50.968;5.366;2022-08-01T07:11:18;15.88;;;10.82;;
26622;SDS011;14254;50.968;5.366;2022-08-01T07:13:44;15.23;;;10.60;;
26622;SDS011;14254;50.968;5.366;2022-08-01T07:16:10;19.73;;;11.32;;
26622;SDS011;14254;50.968;5.366;2022-08-01T07:18:40;15.38;;;10.70;;
26622;SDS011;14254;50.968;5.366;2022-08-01T07:21:06;15.50;;;9.98;;
26622;SDS011;14254;50.968;5.366;2022-08-01T07:23:32;16.67;;;10.48;;
26622;SDS011;14254;50.968;5.366;2022-08-01T07:25:58;13.75;;;8.10;;
26622;SDS011;14254;50.968;5.366;2022-08-01T07:28:26;15.55;;;9.48;;
26622;SDS011;14254;50.968;5.366;2022-08-01T07:30:54;15.80;;;7.63;;
26622;SDS011;14254;50.968;5.366;2022-08-01T07:33:20;13.27;;;8.45;;
26622;SDS011;14254;50.968;5.366;2022-08-01T07:35:47;12.75;;;7.88;;
26622;SDS011;14254;50.968;5.366;2022-08-01T07:38:13;16.38;;;9.57;;
26622;SDS011;14254;50.968;5.366;2022-08-01T07:40:40;10.30;;;6.18;;
26622;SDS011;14254;50.968;5.366;2022-08-01T07:43:05;20.90;;;5.75;;
26622;SDS011;14254;50.968;5.366;2022-08-01T07:45:31;9.35;;;5.35;;
26622;SDS011;14254;50.968;5.366;2022-08-01T07:48:01;8.40;;;5.75;;
26622;SDS011;14254;50.968;5.366;2022-08-01T07:50:30;7.85;;;4.88;;
26622;SDS011;14254;50.968;5.366;2022-08-01T07:52:56;7.63;;;5.07;;
26622;SDS011;14254;50.968;5.366;2022-08-01T07:55:22;7.55;;;4.97;;
26622;SDS011;14254;50.968;5.366;2022-08-01T07:57:48;9.30;;;5.38;;
26622;SDS011;14254;50.968;5.366;2022-08-01T08:00:14;8.68;;;4.90;;
26622;SDS011;14254;50.968;5.366;2022-08-01T08:02:40;5.03;;;4.53;;
26622;SDS011;14254;50.968;5.366;2022-08-01T08:05:06;6.65;;;4.82;;
26622;SDS011;14254;50.968;5.366;2022-08-01T08:07:32;6.72;;;5.10;;
26622;SDS011;14254;50.968;5.366;2022-08-01T08:09:58;7.90;;;4.28;;
26622;SDS011;14254;50.968;5.366;2022-08-01T08:12:24;6.38;;;5.03;;
26622;SDS011;14254;50.968;5.366;2022-08-01T08:14:50;5.28;;;4.60;;
26622;SDS011;14254;50.968;5.366;2022-08-01T08:17:15;5.43;;;4.93;;
26622;SDS011;14254;50.968;5.366;2022-08-01T08:19:41;6.00;;;4.35;;
26622;SDS011;14254;50.968;5.366;2022-08-01T08:22:07;6.28;;;4.65;;
26622;SDS011;14254;50.968;5.366;2022-08-01T08:24:34;5.43;;;4.18;;
26622;SDS011;14254;50.968;5.366;2022-08-01T08:27:00;5.97;;;4.28;;
26622;SDS011;14254;50.968;5.366;2022-08-01T08:29:27;6.13;;;4.28;;
26622;SDS011;14254;50.968;5.366;2022-08-01T08:31:57;6.53;;;4.50;;
26622;SDS011;14254;50.968;5.366;2022-08-01T08:34:24;6.43;;;4.72;;
26622;SDS011;14254;50.968;5.366;2022-08-01T08:36:51;6.15;;;5.43;;
26622;SDS011;14254;50.968;5.366;2022-08-01T08:39:18;5.80;;;5.20;;
26622;SDS011;14254;50.968;5.366;2022-08-01T08:41:43;5.97;;;5.35;;
26622;SDS011;14254;50.968;5.366;2022-08-01T08:44:09;6.72;;;6.10;;
26622;SDS011;14254;50.968;5.366;2022-08-01T08:46:43;7.97;;;6.35;;
26622;SDS011;14254;50.968;5.366;2022-08-01T08:49:11;6.38;;;5.78;;
26622;SDS011;14254;50.968;5.366;2022-08-01T08:51:39;9.90;;;5.97;;
26622;SDS011;14254;50.968;5.366;2022-08-01T08:54:07;6.72;;;5.63;;
26622;SDS011;14254;50.968;5.366;2022-08-01T08:56:35;6.30;;;5.70;;
26622;SDS011;14254;50.968;5.366;2022-08-01T08:59:02;6.60;;;5.47;;
26622;SDS011;14254;50.968;5.366;2022-08-01T09:01:29;6.03;;;5.40;;
26622;SDS011;14254;50.968;5.366;2022-08-01T09:03:59;6.10;;;5.50;;
26622;SDS011;14254;50.968;5.366;2022-08-01T09:06:26;8.88;;;5.43;;
26622;SDS011;14254;50.968;5.366;2022-08-01T09:08:53;5.57;;;5.15;;
26622;SDS011;14254;50.968;5.366;2022-08-01T09:11:18;6.05;;;5.50;;
26622;SDS011;14254;50.968;5.366;2022-08-01T09:14:00;5.65;;;5.15;;
26622;SDS011;14254;50.968;5.366;2022-08-01T09:16:30;5.90;;;5.35;;
26622;SDS011;14254;50.968;5.366;2022-08-01T09:19:06;5.82;;;5.32;;
26622;SDS011;14254;50.968;5.366;2022-08-01T09:21:33;6.57;;;4.95;;
26622;SDS011;14254;50.968;5.366;2022-08-01T09:23:59;6.15;;;5.15;;
26622;SDS011;14254;50.968;5.366;2022-08-01T09:29:05;5.68;;;4.72;;
26622;SDS011;14254;50.968;5.366;2022-08-01T09:31:43;5.70;;;4.32;;
26622;SDS011;14254;50.968;5.366;2022-08-01T09:34:09;6.28;;;4.85;;
26622;SDS011;14254;50.968;5.366;2022-08-01T09:36:49;6.28;;;4.30;;
26622;SDS011;14254;50.968;5.366;2022-08-01T09:39:17;4.90;;;4.40;;
26622;SDS011;14254;50.968;5.366;2022-08-01T09:41:47;5.97;;;4.13;;
26622;SDS011;14254;50.968;5.366;2022-08-01T09:44:14;6.32;;;3.75;;
26622;SDS011;14254;50.968;5.366;2022-08-01T09:47:15;4.53;;;4.13;;
26622;SDS011;14254;50.968;5.366;2022-08-01T09:49:35;6.90;;;4.35;;
26622;SDS011;14254;50.968;5.366;2022-08-01T09:52:12;4.80;;;4.35;;
26622;SDS011;14254;50.968;5.366;2022-08-01T09:54:42;4.35;;;3.90;;
26622;SDS011;14254;50.968;5.366;2022-08-01T09:57:16;4.30;;;3.90;;
26622;SDS011;14254;50.968;5.366;2022-08-01T09:59:44;4.38;;;3.97;;
26622;SDS011;14254;50.968;5.366;2022-08-01T10:02:12;4.32;;;3.45;;
26622;SDS011;14254;50.968;5.366;2022-08-01T10:04:47;4.38;;;3.40;;
26622;SDS011;14254;50.968;5.366;2022-08-01T10:07:14;3.50;;;3.20;;
26622;SDS011;14254;50.968;5.366;2022-08-01T10:09:43;5.55;;;2.70;;
26622;SDS011;14254;50.968;5.366;2022-08-01T10:12:10;3.55;;;3.25;;
26622;SDS011;14254;50.968;5.366;2022-08-01T10:14:37;2.80;;;2.58;;
26622;SDS011;14254;50.968;5.366;2022-08-01T10:17:03;3.10;;;2.63;;
26622;SDS011;14254;50.968;5.366;2022-08-01T10:19:33;3.33;;;2.83;;
26622;SDS011;14254;50.968;5.366;2022-08-01T10:22:00;3.78;;;3.00;;
26622;SDS011;14254;50.968;5.366;2022-08-01T10:24:29;4.38;;;3.00;;
26622;SDS011;14254;50.968;5.366;2022-08-01T10:26:59;3.65;;;3.35;;
26622;SDS011;14254;50.968;5.366;2022-08-01T10:29:29;3.38;;;3.10;;
26622;SDS011;14254;50.968;5.366;2022-08-01T10:32:00;4.80;;;2.80;;
26622;SDS011;14254;50.968;5.366;2022-08-01T10:34:27;3.50;;;2.75;;
26622;SDS011;14254;50.968;5.366;2022-08-01T10:36:54;4.95;;;3.30;;
26622;SDS011;14254;50.968;5.366;2022-08-01T10:39:20;3.30;;;3.00;;
26622;SDS011;14254;50.968;5.366;2022-08-01T10:41:46;3.42;;;3.13;;
26622;SDS011;14254;50.968;5.366;2022-08-01T10:44:12;7.00;;;3.75;;
26622;SDS011;14254;50.968;5.366;2022-08-01T10:46:39;3.75;;;2.90;;
26622;SDS011;14254;50.968;5.366;2022-08-01T10:49:17;5.70;;;2.60;;
26622;SDS011;14254;50.968;5.366;2022-08-01T10:51:46;2.50;;;2.30;;
26622;SDS011;14254;50.968;5.366;2022-08-01T10:54:12;3.13;;;2.42;;
26622;SDS011;14254;50.968;5.366;2022-08-01T10:56:48;3.60;;;2.80;;
26622;SDS011;14254;50.968;5.366;2022-08-01T10:59:22;4.30;;;2.28;;
26622;SDS011;14254;50.968;5.366;2022-08-01T11:01:56;3.30;;;2.65;;
26622;SDS011;14254;50.968;5.366;2022-08-01T11:12:51;3.85;;;2.20;;
26622;SDS011;14254;50.968;5.366;2022-08-01T11:15:18;5.03;;;2.67;;
26622;SDS011;14254;50.968;5.366;2022-08-01T11:17:52;2.80;;;2.60;;
26622;SDS011;14254;50.968;5.366;2022-08-01T11:26:06;3.92;;;1.95;;
26622;SDS011;14254;50.968;5.366;2022-08-01T11:33:12;2.10;;;1.90;;
26622;SDS011;14254;50.968;5.366;2022-08-01T11:36:16;1.90;;;1.80;;
26622;SDS011;14254;50.968;5.366;2022-08-01T11:38:37;2.45;;;1.67;;
26622;SDS011;14254;50.968;5.366;2022-08-01T11:41:20;2.42;;;2.22;;
26622;SDS011;14254;50.968;5.366;2022-08-01T11:46:53;3.58;;;2.20;;
26622;SDS011;14254;50.968;5.366;2022-08-01T11:49:42;3.13;;;2.00;;
26622;SDS011;14254;50.968;5.366;2022-08-01T11:52:14;3.67;;;2.30;;
26622;SDS011;14254;50.968;5.366;2022-08-01T11:57:11;2.22;;;2.00;;
26622;SDS011;14254;50.968;5.366;2022-08-01T11:59:51;2.85;;;1.88;;
26622;SDS011;14254;50.968;5.366;2022-08-01T12:04:48;2.72;;;2.03;;
26622;SDS011;14254;50.968;5.366;2022-08-01T12:07:17;4.13;;;2.08;;
26622;SDS011;14254;50.968;5.366;2022-08-01T12:09:44;2.63;;;1.80;;
26622;SDS011;14254;50.968;5.366;2022-08-01T12:12:11;3.47;;;2.00;;
26622;SDS011;14254;50.968;5.366;2022-08-01T12:14:42;4.03;;;1.60;;
26622;SDS011;14254;50.968;5.366;2022-08-01T12:17:07;4.07;;;1.50;;
26622;SDS011;14254;50.968;5.366;2022-08-01T12:19:33;3.08;;;1.45;;
26622;SDS011;14254;50.968;5.366;2022-08-01T12:22:14;2.40;;;1.73;;
26622;SDS011;14254;50.968;5.366;2022-08-01T12:24:41;3.72;;;1.27;;
26622;SDS011;14254;50.968;5.366;2022-08-01T12:27:08;1.55;;;1.20;;
26622;SDS011;14254;50.968;5.366;2022-08-01T12:29:35;1.23;;;1.13;;
26622;SDS011;14254;50.968;5.366;2022-08-01T12:32:02;2.85;;;1.30;;
26622;SDS011;14254;50.968;5.366;2022-08-01T12:34:29;3.50;;;1.60;;
26622;SDS011;14254;50.968;5.366;2022-08-01T12:36:56;1.30;;;1.20;;
26622;SDS011;14254;50.968;5.366;2022-08-01T12:39:29;1.80;;;1.60;;
26622;SDS011;14254;50.968;5.366;2022-08-01T12:41:56;2.65;;;1.30;;
26622;SDS011;14254;50.968;5.366;2022-08-01T12:44:22;1.83;;;1.40;;
26622;SDS011;14254;50.968;5.366;2022-08-01T12:46:47;2.30;;;1.13;;
26622;SDS011;14254;50.968;5.366;2022-08-01T12:49:13;10.38;;;1.85;;
26622;SDS011;14254;50.968;5.366;2022-08-01T12:51:40;1.52;;;1.20;;
26622;SDS011;14254;50.968;5.366;2022-08-01T12:54:06;2.15;;;1.33;;
26622;SDS011;14254;50.968;5.366;2022-08-01T12:56:35;2.47;;;1.23;;
26622;SDS011;14254;50.968;5.366;2022-08-01T12:59:01;3.58;;;1.30;;
26622;SDS011;14254;50.968;5.366;2022-08-01T13:01:44;1.40;;;1.25;;
26622;SDS011;14254;50.968;5.366;2022-08-01T13:04:10;1.45;;;1.25;;
26622;SDS011;14254;50.968;5.366;2022-08-01T13:06:35;2.25;;;1.45;;
26622;SDS011;14254;50.968;5.366;2022-08-01T13:09:05;1.73;;;1.60;;
26622;SDS011;14254;50.968;5.366;2022-08-01T13:11:31;3.60;;;1.03;;
26622;SDS011;14254;50.968;5.366;2022-08-01T13:13:57;5.57;;;1.30;;
26622;SDS011;14254;50.968;5.366;2022-08-01T13:16:24;4.40;;;1.23;;
26622;SDS011;14254;50.968;5.366;2022-08-01T13:18:51;3.38;;;1.33;;
26622;SDS011;14254;50.968;5.366;2022-08-01T13:21:22;3.63;;;1.40;;
26622;SDS011;14254;50.968;5.366;2022-08-01T13:26:44;2.47;;;1.40;;
26622;SDS011;14254;50.968;5.366;2022-08-01T13:29:10;2.13;;;1.45;;
26622;SDS011;14254;50.968;5.366;2022-08-01T13:31:38;3.33;;;1.70;;
26622;SDS011;14254;50.968;5.366;2022-08-01T13:34:05;8.93;;;2.20;;
26622;SDS011;14254;50.968;5.366;2022-08-01T13:36:31;3.50;;;1.50;;
26622;SDS011;14254;50.968;5.366;2022-08-01T13:38:57;3.28;;;1.70;;
26622;SDS011;14254;50.968;5.366;2022-08-01T13:41:42;3.08;;;1.58;;
26622;SDS011;14254;50.968;5.366;2022-08-01T13:44:09;3.15;;;1.83;;
26622;SDS011;14254;50.968;5.366;2022-08-01T13:46:36;5.22;;;1.50;;
26622;SDS011;14254;50.968;5.366;2022-08-01T13:49:03;4.00;;;1.55;;
26622;SDS011;14254;50.968;5.366;2022-08-01T13:51:30;1.65;;;1.40;;
26622;SDS011;14254;50.968;5.366;2022-08-01T13:53:56;2.60;;;1.70;;
26622;SDS011;14254;50.968;5.366;2022-08-01T13:56:22;3.45;;;1.80;;
26622;SDS011;14254;50.968;5.366;2022-08-01T13:58:48;1.98;;;1.60;;
26622;SDS011;14254;50.968;5.366;2022-08-01T14:01:13;4.40;;;1.60;;
26622;SDS011;14254;50.968;5.366;2022-08-01T14:03:39;5.75;;;1.77;;
26622;SDS011;14254;50.968;5.366;2022-08-01T14:06:05;3.83;;;1.67;;
26622;SDS011;14254;50.968;5.366;2022-08-01T14:08:31;2.88;;;1.48;;
26622;SDS011;14254;50.968;5.366;2022-08-01T14:10:57;2.42;;;1.10;;
26622;SDS011;14254;50.968;5.366;2022-08-01T14:13:28;2.97;;;1.38;;
26622;SDS011;14254;50.968;5.366;2022-08-01T14:15:53;1.83;;;1.30;;
26622;SDS011;14254;50.968;5.366;2022-08-01T14:18:19;1.85;;;1.40;;
26622;SDS011;14254;50.968;5.366;2022-08-01T14:20:45;2.70;;;1.17;;
26622;SDS011;14254;50.968;5.366;2022-08-01T14:23:11;2.63;;;1.27;;
26622;SDS011;14254;50.968;5.366;2022-08-01T14:25:37;4.03;;;1.10;;
26622;SDS011;14254;50.968;5.366;2022-08-01T14:28:03;2.33;;;1.20;;
26622;SDS011;14254;50.968;5.366;2022-08-01T14:30:31;2.88;;;1.35;;
26622;SDS011;14254;50.968;5.366;2022-08-01T14:32:57;4.15;;;1.40;;
26622;SDS011;14254;50.968;5.366;2022-08-01T14:35:23;2.92;;;1.17;;
26622;SDS011;14254;50.968;5.366;2022-08-01T14:37:48;2.45;;;1.30;;
26622;SDS011;14254;50.968;5.366;2022-08-01T14:40:14;21.00;;;3.13;;
26622;SDS011;14254;50.968;5.366;2022-08-01T14:42:40;4.32;;;1.60;;
26622;SDS011;14254;50.968;5.366;2022-08-01T14:45:06;2.72;;;1.20;;
26622;SDS011;14254;50.968;5.366;2022-08-01T14:47:36;2.40;;;1.38;;
26622;SDS011;14254;50.968;5.366;2022-08-01T14:50:06;4.60;;;1.90;;
26622;SDS011;14254;50.968;5.366;2022-08-01T14:52:34;3.85;;;1.67;;
26622;SDS011;14254;50.968;5.366;2022-08-01T14:55:01;3.55;;;1.30;;
26622;SDS011;14254;50.968;5.366;2022-08-01T14:57:27;3.13;;;1.65;;
26622;SDS011;14254;50.968;5.366;2022-08-01T14:59:55;2.72;;;1.67;;
26622;SDS011;14254;50.968;5.366;2022-08-01T15:02:20;2.28;;;1.52;;
26622;SDS011;14254;50.968;5.366;2022-08-01T15:04:46;3.75;;;1.63;;
26622;SDS011;14254;50.968;5.366;2022-08-01T15:07:13;2.58;;;1.38;;
26622;SDS011;14254;50.968;5.366;2022-08-01T15:09:39;2.75;;;1.40;;
26622;SDS011;14254;50.968;5.366;2022-08-01T15:12:05;6.97;;;1.50;;
26622;SDS011;14254;50.968;5.366;2022-08-01T15:14:31;7.50;;;1.50;;
26622;SDS011;14254;50.968;5.366;2022-08-01T15:17:13;4.13;;;1.70;;
26622;SDS011;14254;50.968;5.366;2022-08-01T15:19:46;3.90;;;1.52;;
26622;SDS011;14254;50.968;5.366;2022-08-01T15:22:19;2.75;;;1.50;;
26622;SDS011;14254;50.968;5.366;2022-08-01T15:24:46;2.33;;;1.10;;
26622;SDS011;14254;50.968;5.366;2022-08-01T15:27:12;1.98;;;1.50;;
26622;SDS011;14254;50.968;5.366;2022-08-01T15:29:38;3.15;;;1.42;;
26622;SDS011;14254;50.968;5.366;2022-08-01T15:32:04;5.10;;;1.58;;
26622;SDS011;14254;50.968;5.366;2022-08-01T15:34:32;7.35;;;1.42;;
26622;SDS011;14254;50.968;5.366;2022-08-01T15:36:59;3.05;;;1.27;;
26622;SDS011;14254;50.968;5.366;2022-08-01T15:39:24;1.70;;;1.30;;
26622;SDS011;14254;50.968;5.366;2022-08-01T15:41:50;4.05;;;1.70;;
26622;SDS011;14254;50.968;5.366;2022-08-01T15:44:16;4.28;;;1.75;;